SLRI/RIB METAR and TAF weather

Enter ICAO airport designator
Station Type Date Time Source
SLRI METAR 2020/04/06 15:00 UTC NOAA

SLRI 061500Z 07004KT 9999 SCT017 BKN080 30/24 Q1015


Station Type Date Time Source
SLRI Decoded METAR 2020/04/06 15:00 UTC NOAA

Riberalta, Bolivia (SLRI) 11-00S 066-07W
Apr 06, 2020 - 11:00 AM EDT / 2020.04.06 1500 UTC
Wind: from the ENE (070 degrees) at 5 MPH (4 KT):0
Visibility: greater than 7 mile(s):0
Sky conditions: mostly cloudy
Temperature: 86 F (30 C)
Heat index: 95.0 F (35.0 C):1
Dew Point: 75 F (24 C)
Relative Humidity: 70%
Pressure (altimeter): 29.97 in. Hg (1015 hPa)
ob: SLRI 061500Z 07004KT 9999 SCT017 BKN080 30/24 Q1015
cycle: 15

Station Type Date Time Source
SLRI TAF 2015/11/18 00:29 UTC NOAA

TAF SLRI 182200Z 1900/1924 00000KT 9999 FEW015 TX37/1919Z TN23/1910Z
BECMG 1912/1914 33011KT SCT020
TEMPO 1919/1922 8000 VCSH FEW020 FEW023CB BKN080

Example: see airport list